Time;durP1;ratioP1;P1;durP2;ratioP2;P2;SDS_P1;SDS_P2;PMS_P1;PMS_P2;Temp;Humidity;BMP_temperature;BMP_pressure;BME280_temperature;BME280_humidity;BME280_pressure;Samples;Min_cycle;Max_cycle;Signal;HPM_P1;HPM_P2
2022/08/08 00:00:52;;;;;;;3.60;3.10;;;20.00;96.40;;;;;;4988814;28;20244;-67
2022/08/08 00:03:25;;;;;;;3.73;3.37;;;20.00;96.30;;;;;;4989236;28;20202;-67
2022/08/08 00:05:56;;;;;;;2.90;2.60;;;20.00;96.30;;;;;;4989300;28;20195;-68
2022/08/08 00:08:29;;;;;;;5.03;2.83;;;20.00;96.50;;;;;;4989164;28;20607;-68
2022/08/08 00:11:08;;;;;;;3.33;3.13;;;20.00;96.80;;;;;;4988972;28;20190;-67
2022/08/08 00:13:42;;;;;;;3.23;3.03;;;20.00;97.00;;;;;;4988990;28;20725;-67
2022/08/08 00:16:16;;;;;;;2.80;2.60;;;19.90;97.10;;;;;;4988198;28;20293;-68
2022/08/08 00:18:49;;;;;;;2.93;2.73;;;19.90;97.00;;;;;;5003908;28;20590;-68
2022/08/08 00:21:20;;;;;;;3.23;2.67;;;19.90;96.90;;;;;;5008416;28;20198;-68
2022/08/08 00:23:52;;;;;;;2.90;2.70;;;19.90;96.70;;;;;;5008565;28;20252;-67
2022/08/08 00:26:25;;;;;;;3.10;2.90;;;19.90;96.60;;;;;;5007782;28;20209;-67
2022/08/08 00:29:02;;;;;;;3.10;2.40;;;19.90;96.20;;;;;;5008758;28;20197;-67
2022/08/08 00:31:34;;;;;;;3.00;2.80;;;19.80;96.00;;;;;;5005352;28;20775;-67
2022/08/08 00:37:12;;;;;;;2.90;2.40;;;19.80;95.70;;;;;;4988782;28;20243;-67
2022/08/08 00:39:51;;;;;;;2.50;2.30;;;19.80;95.50;;;;;;4988602;28;20237;-67
2022/08/08 00:42:58;;;;;;;3.20;2.60;;;19.70;95.60;;;;;;4988476;28;20194;-69
2022/08/08 00:45:49;;;;;;;2.90;2.70;;;19.70;95.60;;;;;;4984701;28;20297;-69
2022/08/08 00:48:51;;;;;;;2.90;2.70;;;19.70;95.20;;;;;;4993375;28;20208;-69
2022/08/08 00:51:44;;;;;;;3.00;2.70;;;19.60;95.10;;;;;;5008246;28;20311;-69
2022/08/08 00:54:50;;;;;;;2.90;2.70;;;19.60;95.00;;;;;;5005038;28;20300;-69
2022/08/08 00:57:56;;;;;;;2.63;2.43;;;19.50;95.00;;;;;;5007545;28;20197;-69
2022/08/08 01:00:25;;;;;;;2.67;2.53;;;19.50;95.10;;;;;;4998603;28;20324;-69
2022/08/08 01:03:25;;;;;;;2.83;2.63;;;19.50;95.20;;;;;;4988423;28;20272;-69
2022/08/08 01:06:16;;;;;;;3.73;2.60;;;19.50;95.30;;;;;;4988221;28;20225;-69
2022/08/08 01:09:27;;;;;;;2.53;2.33;;;19.40;95.30;;;;;;4988425;28;20206;-69
2022/08/08 01:12:26;;;;;;;2.67;2.57;;;19.40;95.40;;;;;;4977590;28;20541;-69
2022/08/08 01:15:30;;;;;;;2.60;2.50;;;19.30;95.50;;;;;;4999697;28;20224;-69
2022/08/08 01:18:24;;;;;;;2.70;2.50;;;19.30;95.50;;;;;;4985748;28;20210;-69
2022/08/08 01:21:06;;;;;;;3.00;2.80;;;19.30;95.60;;;;;;5007568;28;20657;-69
2022/08/08 01:24:10;;;;;;;2.80;2.47;;;19.30;95.40;;;;;;5007435;28;20226;-69
2022/08/08 01:27:00;;;;;;;2.83;2.63;;;19.30;95.40;;;;;;5008160;28;20201;-70
2022/08/08 01:29:43;;;;;;;4.03;3.13;;;19.20;95.40;;;;;;4994252;28;20197;-71
2022/08/08 01:32:46;;;;;;;5.67;2.93;;;19.20;95.40;;;;;;4992063;28;20217;-70
2022/08/08 01:35:38;;;;;;;3.23;2.93;;;19.10;95.50;;;;;;4991869;28;20225;-69
2022/08/08 01:38:21;;;;;;;3.20;2.80;;;19.10;95.70;;;;;;4991899;28;20202;-68
2022/08/08 01:40:56;;;;;;;2.40;2.20;;;19.10;95.90;;;;;;4993552;28;20209;-68
2022/08/08 01:43:37;;;;;;;3.00;2.70;;;19.10;95.90;;;;;;5010822;28;20208;-68
2022/08/08 01:46:29;;;;;;;2.77;2.57;;;19.00;96.00;;;;;;5011221;28;20208;-68
2022/08/08 01:49:08;;;;;;;3.27;2.73;;;19.10;96.10;;;;;;5011436;28;20209;-68
2022/08/08 01:51:50;;;;;;;3.13;2.47;;;19.10;96.10;;;;;;5011309;28;20221;-68
2022/08/08 01:54:25;;;;;;;2.97;2.70;;;19.00;96.10;;;;;;5010971;28;20198;-67
2022/08/08 01:57:10;;;;;;;2.77;2.67;;;18.90;96.10;;;;;;5010897;28;20204;-67
2022/08/08 02:00:00;;;;;;;3.00;2.80;;;18.90;96.20;;;;;;5009375;28;20256;-67
2022/08/08 02:02:40;;;;;;;2.70;2.50;;;18.90;96.40;;;;;;4991263;28;20206;-67
2022/08/08 02:05:23;;;;;;;2.80;2.60;;;18.80;96.40;;;;;;4991566;28;20195;-67
2022/08/08 02:08:05;;;;;;;3.67;2.73;;;18.80;96.50;;;;;;4991375;28;20253;-67
2022/08/08 02:10:48;;;;;;;3.70;2.70;;;18.80;96.60;;;;;;4996384;28;20213;-67
2022/08/08 02:13:31;;;;;;;4.07;3.10;;;18.80;96.60;;;;;;5010777;28;20553;-67
2022/08/08 02:16:07;;;;;;;2.60;2.43;;;18.70;96.80;;;;;;5010656;28;20716;-68
2022/08/08 02:18:42;;;;;;;2.97;2.77;;;18.70;96.80;;;;;;5010345;28;20228;-67
2022/08/08 02:24:18;;;;;;;3.20;2.90;;;18.60;97.00;;;;;;4989953;28;20260;-67
2022/08/08 02:26:50;;;;;;;3.37;3.07;;;18.60;97.20;;;;;;5010374;28;20201;-67
2022/08/08 02:29:38;;;;;;;4.80;3.03;;;18.60;97.40;;;;;;5010310;28;20198;-67
2022/08/08 02:32:51;;;;;;;3.30;3.00;;;18.60;97.70;;;;;;5008902;28;20220;-67
2022/08/08 02:35:40;;;;;;;4.07;3.10;;;18.50;97.90;;;;;;4980105;28;20197;-67
2022/08/08 02:38:33;;;;;;;3.50;2.90;;;18.50;97.90;;;;;;5008397;28;20641;-67
2022/08/08 02:41:48;;;;;;;3.53;3.17;;;18.50;98.00;;;;;;4997824;28;20584;-67
2022/08/08 02:44:49;;;;;;;3.83;3.30;;;18.50;98.10;;;;;;4983963;28;20304;-68
2022/08/08 02:47:46;;;;;;;6.17;3.23;;;18.50;98.10;;;;;;5006491;28;20652;-67
2022/08/08 02:50:58;;;;;;;3.20;3.00;;;18.40;98.10;;;;;;4980203;28;20209;-67
2022/08/08 02:53:39;;;;;;;4.97;2.93;;;18.40;98.00;;;;;;5005158;28;20300;-67
2022/08/08 02:56:37;;;;;;;3.30;3.10;;;18.40;98.00;;;;;;4988093;28;20292;-67
2022/08/08 02:59:51;;;;;;;4.50;3.40;;;18.40;98.00;;;;;;4987906;28;20250;-67
2022/08/08 03:02:48;;;;;;;3.43;3.13;;;18.40;98.00;;;;;;5004043;28;20212;-68
2022/08/08 03:05:39;;;;;;;3.70;3.40;;;18.30;98.00;;;;;;5007452;28;20566;-68
2022/08/08 03:08:32;;;;;;;6.80;3.70;;;18.30;97.90;;;;;;5005653;28;20198;-68
2022/08/08 03:11:58;;;;;;;8.23;3.20;;;18.30;97.80;;;;;;5009318;28;20573;-68
2022/08/08 03:14:46;;;;;;;5.37;2.93;;;18.20;97.90;;;;;;5008384;28;20194;-68
2022/08/08 03:17:18;;;;;;;5.07;3.60;;;18.20;97.90;;;;;;5009575;28;20205;-68
2022/08/08 03:20:05;;;;;;;3.97;3.27;;;18.10;97.90;;;;;;5009396;28;20236;-68
2022/08/08 03:22:31;;;;;;;3.50;3.20;;;18.10;98.00;;;;;;5009222;28;20206;-68
2022/08/08 03:25:01;;;;;;;4.10;2.77;;;18.00;98.00;;;;;;5009379;28;20228;-68
2022/08/08 03:27:34;;;;;;;4.73;3.40;;;18.00;98.10;;;;;;5008714;28;20584;-68
2022/08/08 03:30:06;;;;;;;5.07;3.40;;;18.00;98.20;;;;;;5009365;28;20287;-68
2022/08/08 03:35:18;;;;;;;3.37;3.07;;;17.90;98.40;;;;;;5008863;28;20201;-68
2022/08/08 03:37:46;;;;;;;3.40;3.10;;;17.90;98.30;;;;;;5009640;28;20221;-68
2022/08/08 03:40:16;;;;;;;5.90;3.60;;;17.90;98.40;;;;;;5008594;28;20236;-68
2022/08/08 03:42:43;;;;;;;3.67;3.47;;;17.80;98.40;;;;;;5009021;28;20553;-68
2022/08/08 03:45:15;;;;;;;6.53;3.20;;;17.80;98.40;;;;;;5009153;28;20216;-68
2022/08/08 03:47:42;;;;;;;3.77;3.27;;;17.70;98.50;;;;;;5008602;28;20209;-68
2022/08/08 03:50:16;;;;;;;4.27;3.23;;;17.70;98.40;;;;;;5008960;28;20213;-68
2022/08/08 03:52:44;;;;;;;3.17;2.97;;;17.70;98.40;;;;;;5009190;28;20219;-68
2022/08/08 03:55:11;;;;;;;4.80;3.17;;;17.70;98.50;;;;;;5008758;28;20215;-68
2022/08/08 03:57:44;;;;;;;3.40;2.90;;;17.70;98.50;;;;;;5008956;28;20208;-68
2022/08/08 04:00:13;;;;;;;5.97;3.60;;;17.70;98.60;;;;;;5008553;28;20249;-68
2022/08/08 04:02:40;;;;;;;5.17;3.13;;;17.70;98.70;;;;;;5008687;28;20216;-68
2022/08/08 04:05:07;;;;;;;3.83;3.33;;;17.70;98.80;;;;;;5008908;28;20206;-68
2022/08/08 04:07:38;;;;;;;6.10;3.43;;;17.70;98.80;;;;;;5008703;28;20213;-68
2022/08/08 04:10:07;;;;;;;3.97;3.57;;;17.70;98.50;;;;;;5008566;28;20210;-68
2022/08/08 04:12:34;;;;;;;3.87;3.57;;;17.70;98.60;;;;;;5008318;28;20205;-68
2022/08/08 04:15:03;;;;;;;3.77;3.13;;;17.70;98.70;;;;;;5008816;28;20209;-68
2022/08/08 04:17:30;;;;;;;4.47;3.43;;;17.70;98.70;;;;;;5008165;28;20703;-68
2022/08/08 04:19:57;;;;;;;3.30;3.00;;;17.70;98.70;;;;;;5008177;28;20245;-68
2022/08/08 04:22:26;;;;;;;5.43;3.10;;;17.70;98.70;;;;;;5008355;28;20210;-68
2022/08/08 04:24:54;;;;;;;4.60;3.30;;;17.70;98.80;;;;;;5008552;28;20252;-68
2022/08/08 04:27:22;;;;;;;3.50;3.20;;;17.70;98.80;;;;;;5007824;28;20293;-68
2022/08/08 04:29:49;;;;;;;5.63;3.63;;;17.60;98.80;;;;;;5008482;28;20245;-68
2022/08/08 04:32:17;;;;;;;3.90;3.60;;;17.60;99.00;;;;;;5008328;28;20209;-68
2022/08/08 04:34:44;;;;;;;5.17;3.40;;;17.60;98.70;;;;;;5008302;28;20300;-68
2022/08/08 04:37:12;;;;;;;4.87;3.60;;;17.60;98.70;;;;;;5008339;28;20224;-68
2022/08/08 04:39:39;;;;;;;5.57;3.23;;;17.60;98.80;;;;;;5008131;28;20229;-68
2022/08/08 04:42:07;;;;;;;3.80;3.50;;;17.60;98.80;;;;;;5007939;28;20209;-68
2022/08/08 04:44:34;;;;;;;3.87;3.50;;;17.60;98.80;;;;;;5008206;28;20213;-68
2022/08/08 04:47:00;;;;;;;4.07;3.67;;;17.70;98.90;;;;;;5008157;28;20209;-68
2022/08/08 04:49:29;;;;;;;4.90;3.67;;;17.70;98.90;;;;;;5007810;28;20220;-67
2022/08/08 04:51:56;;;;;;;7.53;3.67;;;17.70;98.80;;;;;;5008334;28;20233;-67
2022/08/08 04:54:23;;;;;;;4.50;3.40;;;17.70;98.80;;;;;;5007581;28;20210;-67
2022/08/08 04:56:49;;;;;;;4.50;4.10;;;17.70;98.80;;;;;;5007601;28;20214;-67
2022/08/08 04:59:16;;;;;;;4.87;3.70;;;17.70;99.00;;;;;;5007679;28;20331;-68
2022/08/08 05:01:43;;;;;;;4.03;3.63;;;17.80;99.10;;;;;;5009967;28;20209;-67
2022/08/08 05:04:10;;;;;;;4.53;3.80;;;17.80;99.10;;;;;;5014612;28;20206;-67
2022/08/08 05:06:38;;;;;;;3.63;3.33;;;17.80;99.10;;;;;;5014362;28;20209;-67
2022/08/08 05:09:06;;;;;;;5.37;3.70;;;17.80;99.30;;;;;;5006140;28;20304;-67
2022/08/08 05:11:33;;;;;;;5.13;3.83;;;17.90;99.40;;;;;;5014003;28;20210;-67
2022/08/08 05:14:00;;;;;;;5.33;3.53;;;17.90;99.50;;;;;;5014152;28;20216;-67
2022/08/08 05:16:26;;;;;;;10.50;3.97;;;18.00;99.60;;;;;;5014346;28;20227;-67
2022/08/08 05:18:55;;;;;;;8.80;3.53;;;18.00;99.70;;;;;;5014210;28;20308;-67
2022/08/08 05:21:22;;;;;;;10.27;3.87;;;18.10;99.80;;;;;;5013749;28;20707;-68
2022/08/08 05:23:50;;;;;;;10.83;3.70;;;18.10;99.60;;;;;;5014265;28;20764;-67
2022/08/08 05:26:17;;;;;;;5.33;3.23;;;18.10;99.40;;;;;;5013686;28;20205;-67
2022/08/08 05:28:44;;;;;;;7.40;3.70;;;18.20;99.20;;;;;;5013992;28;20669;-68
2022/08/08 05:31:12;;;;;;;6.77;3.93;;;18.20;99.10;;;;;;5013821;28;20680;-67
2022/08/08 05:33:39;;;;;;;9.20;3.50;;;18.20;99.00;;;;;;5014132;28;20206;-67
2022/08/08 05:36:09;;;;;;;5.73;3.80;;;18.30;98.90;;;;;;5013954;28;20681;-67
2022/08/08 05:38:41;;;;;;;9.27;3.23;;;18.30;98.60;;;;;;5014115;28;20213;-67
2022/08/08 05:41:10;;;;;;;8.20;3.77;;;18.30;98.40;;;;;;5013469;28;20217;-67
2022/08/08 05:43:42;;;;;;;11.53;3.77;;;18.40;98.30;;;;;;5013993;28;20213;-68
2022/08/08 05:46:09;;;;;;;6.77;3.70;;;18.40;98.20;;;;;;5013817;28;20879;-68
2022/08/08 05:48:37;;;;;;;6.20;4.07;;;18.40;98.00;;;;;;5013534;28;20213;-67
2022/08/08 05:51:08;;;;;;;5.80;3.40;;;18.40;97.80;;;;;;5014021;28;20216;-68
2022/08/08 05:53:35;;;;;;;6.90;3.40;;;18.50;97.90;;;;;;5013634;28;20219;-67
2022/08/08 05:56:05;;;;;;;5.60;3.77;;;18.50;97.80;;;;;;5013814;28;20576;-67
2022/08/08 05:58:34;;;;;;;7.07;3.40;;;18.60;97.80;;;;;;5013803;28;20213;-67
2022/08/08 06:01:04;;;;;;;5.77;3.70;;;18.70;97.80;;;;;;5013866;28;20235;-68
2022/08/08 06:03:31;;;;;;;6.33;3.77;;;18.70;97.60;;;;;;5013941;28;20205;-68
2022/08/08 06:06:00;;;;;;;4.63;3.53;;;18.70;97.60;;;;;;5013891;28;20209;-67
2022/08/08 06:08:28;;;;;;;6.60;3.83;;;18.80;97.40;;;;;;5013866;28;20236;-67
2022/08/08 06:10:57;;;;;;;6.33;3.53;;;18.80;97.40;;;;;;5013318;28;20241;-67
2022/08/08 06:13:25;;;;;;;9.63;3.60;;;18.90;97.30;;;;;;5011101;28;20218;-67
2022/08/08 06:15:54;;;;;;;6.40;3.57;;;18.90;97.20;;;;;;5010807;28;20214;-67
2022/08/08 06:18:23;;;;;;;4.90;3.20;;;19.00;97.10;;;;;;5010846;28;20218;-67
2022/08/08 06:20:52;;;;;;;6.83;4.23;;;19.00;96.90;;;;;;5010934;28;20260;-67
2022/08/08 06:23:19;;;;;;;10.80;3.70;;;19.10;96.90;;;;;;5010614;28;20597;-68
2022/08/08 06:25:57;;;;;;;9.17;3.13;;;19.20;96.90;;;;;;5010563;28;20201;-68
2022/08/08 06:28:30;;;;;;;9.53;3.53;;;19.20;96.70;;;;;;5010750;28;20783;-67
2022/08/08 06:31:00;;;;;;;6.60;3.80;;;19.20;96.40;;;;;;5010765;28;20252;-67
2022/08/08 06:33:36;;;;;;;6.33;3.83;;;19.30;96.30;;;;;;5010493;28;20198;-68
2022/08/08 06:36:06;;;;;;;7.27;3.67;;;19.30;96.20;;;;;;5010514;28;20205;-68
2022/08/08 06:38:37;;;;;;;9.87;3.37;;;19.30;96.30;;;;;;5010565;28;20197;-70
2022/08/08 06:41:11;;;;;;;4.43;2.90;;;19.40;96.10;;;;;;5009733;28;20667;-70
2022/08/08 06:43:41;;;;;;;7.73;3.30;;;19.40;95.80;;;;;;5010200;28;20224;-70
2022/08/08 06:46:10;;;;;;;9.07;3.50;;;19.50;95.80;;;;;;5010068;28;20926;-70
2022/08/08 06:48:37;;;;;;;7.03;3.60;;;19.50;95.80;;;;;;5010106;28;20217;-70
2022/08/08 06:51:07;;;;;;;6.80;3.87;;;19.50;95.70;;;;;;5010095;28;20220;-70
2022/08/08 06:53:36;;;;;;;7.67;3.67;;;19.60;95.70;;;;;;5009752;28;20739;-70
2022/08/08 06:56:07;;;;;;;7.53;3.90;;;19.60;95.80;;;;;;5009713;28;20206;-70
2022/08/08 06:58:34;;;;;;;7.53;4.23;;;19.70;95.80;;;;;;5009677;28;20240;-70
2022/08/08 07:01:06;;;;;;;7.23;4.10;;;19.70;95.70;;;;;;5009809;28;20228;-70
2022/08/08 07:03:45;;;;;;;9.37;4.00;;;19.70;95.60;;;;;;5009947;28;20202;-70
2022/08/08 07:06:16;;;;;;;8.87;4.23;;;19.80;95.70;;;;;;5009280;28;20691;-68
2022/08/08 07:08:47;;;;;;;6.10;4.13;;;19.80;95.50;;;;;;5009884;28;20559;-67
2022/08/08 07:11:19;;;;;;;5.70;3.93;;;19.80;95.40;;;;;;5009532;28;20301;-70
2022/08/08 07:13:52;;;;;;;8.27;3.93;;;19.90;95.20;;;;;;5009677;28;20233;-67
2022/08/08 07:16:24;;;;;;;6.30;3.47;;;19.90;95.10;;;;;;5009449;28;20204;-67
2022/08/08 07:19:11;;;;;;;5.97;3.83;;;20.00;95.10;;;;;;5009743;28;20240;-68
2022/08/08 07:21:56;;;;;;;4.80;3.40;;;20.00;94.70;;;;;;5009585;28;20225;-67
2022/08/08 07:24:29;;;;;;;7.37;3.60;;;20.00;94.60;;;;;;5008993;28;20595;-68
2022/08/08 07:26:59;;;;;;;8.33;3.40;;;20.10;94.60;;;;;;5008985;28;20196;-68
2022/08/08 07:29:26;;;;;;;4.13;3.17;;;20.10;94.50;;;;;;5009007;28;20296;-68
2022/08/08 07:31:55;;;;;;;4.90;3.00;;;20.10;94.40;;;;;;5009210;28;20213;-68
2022/08/08 07:34:24;;;;;;;6.33;3.07;;;20.20;94.40;;;;;;5008800;28;20216;-68
2022/08/08 07:36:53;;;;;;;7.53;3.53;;;20.20;94.70;;;;;;5009013;28;20758;-68
2022/08/08 07:39:22;;;;;;;9.17;3.27;;;20.20;94.10;;;;;;5009172;28;20209;-68
2022/08/08 07:41:50;;;;;;;4.73;3.00;;;20.30;94.10;;;;;;5008487;28;20244;-68
2022/08/08 07:44:18;;;;;;;6.53;3.20;;;20.30;94.10;;;;;;5009080;28;20220;-68
2022/08/08 07:46:45;;;;;;;5.50;3.50;;;20.40;94.10;;;;;;5009117;28;20219;-68
2022/08/08 07:49:12;;;;;;;6.80;3.30;;;20.40;94.20;;;;;;5008748;28;20218;-68
2022/08/08 07:51:42;;;;;;;7.73;3.30;;;20.40;94.20;;;;;;5008847;28;20206;-68
2022/08/08 07:54:18;;;;;;;30.90;4.83;;;20.50;94.10;;;;;;5008867;28;20215;-68
2022/08/08 07:56:54;;;;;;;8.20;3.07;;;20.60;94.00;;;;;;5008529;28;20201;-68
2022/08/08 07:59:24;;;;;;;2.92;2.72;;;20.60;93.90;;;;;;5008298;28;20247;-68
2022/08/08 08:01:57;;;;;;;11.48;3.35;;;20.70;93.40;;;;;;5008861;28;20218;-68
2022/08/08 08:04:32;;;;;;;7.33;2.90;;;20.80;93.20;;;;;;5008228;28;20204;-68
2022/08/08 08:07:01;;;;;;;3.95;2.83;;;20.90;93.10;;;;;;5008715;28;20193;-68
2022/08/08 08:09:36;;;;;;;20.40;4.57;;;21.00;93.10;;;;;;5008754;28;20208;-68
2022/08/08 08:12:03;;;;;;;9.27;3.03;;;21.00;93.30;;;;;;5008366;28;20204;-68
2022/08/08 08:14:39;;;;;;;3.97;3.13;;;21.00;93.10;;;;;;5008482;28;20218;-68
2022/08/08 08:17:08;;;;;;;3.25;2.70;;;21.10;93.00;;;;;;5008837;28;20205;-67
2022/08/08 08:19:38;;;;;;;3.90;2.90;;;21.20;92.70;;;;;;5008492;28;20218;-67
2022/08/08 08:22:06;;;;;;;3.47;2.80;;;21.20;92.70;;;;;;5008040;28;20273;-68
2022/08/08 08:24:33;;;;;;;4.07;2.80;;;21.20;92.40;;;;;;5008306;28;20277;-67
2022/08/08 08:27:00;;;;;;;5.68;3.20;;;21.30;92.30;;;;;;5008180;28;20214;-67
2022/08/08 08:29:27;;;;;;;5.40;2.88;;;21.30;90.90;;;;;;5008385;28;20201;-67
2022/08/08 08:31:55;;;;;;;5.78;3.55;;;21.40;91.20;;;;;;5008674;28;20232;-67
2022/08/08 08:34:22;;;;;;;4.35;3.72;;;21.40;91.30;;;;;;5008249;28;20287;-67
2022/08/08 08:36:48;;;;;;;5.25;4.22;;;21.50;90.90;;;;;;5007493;28;20756;-67
2022/08/08 08:39:17;;;;;;;4.68;3.90;;;21.60;91.00;;;;;;5008111;28;20328;-67
2022/08/08 08:41:45;;;;;;;9.07;5.60;;;21.80;91.00;;;;;;5007746;28;20233;-68
2022/08/08 08:44:12;;;;;;;6.47;5.65;;;21.70;91.20;;;;;;5008049;28;20208;-68
2022/08/08 08:46:39;;;;;;;23.98;6.68;;;21.80;91.30;;;;;;5007977;28;20728;-68
2022/08/08 08:49:06;;;;;;;9.45;5.45;;;21.90;90.90;;;;;;5007903;28;20719;-67
2022/08/08 08:51:40;;;;;;;7.35;5.18;;;22.10;90.60;;;;;;5007973;28;20209;-68
2022/08/08 08:54:08;;;;;;;8.23;5.78;;;22.10;90.70;;;;;;5008135;28;20629;-68
2022/08/08 08:56:37;;;;;;;4.95;4.50;;;22.10;90.70;;;;;;5007672;28;20379;-68
2022/08/08 08:59:05;;;;;;;32.25;6.60;;;22.10;90.50;;;;;;5007936;28;20245;-68
2022/08/08 09:01:34;;;;;;;10.50;4.57;;;22.20;90.30;;;;;;5007698;28;20221;-68
2022/08/08 09:04:08;;;;;;;5.82;3.50;;;22.20;90.40;;;;;;5008000;28;20209;-68
2022/08/08 09:06:38;;;;;;;5.80;2.85;;;22.30;90.30;;;;;;5007982;28;20333;-68
2022/08/08 09:09:09;;;;;;;26.83;4.72;;;22.30;89.20;;;;;;5007791;28;20651;-68
2022/08/08 09:11:38;;;;;;;4.05;2.78;;;22.40;89.60;;;;;;5007533;28;20202;-67
2022/08/08 09:14:08;;;;;;;5.05;3.10;;;22.50;88.90;;;;;;5007784;28;20262;-68
2022/08/08 09:16:36;;;;;;;3.33;2.70;;;22.50;88.30;;;;;;5007769;28;20304;-68
2022/08/08 09:19:03;;;;;;;3.75;2.75;;;22.50;88.60;;;;;;5008007;28;20708;-69
2022/08/08 09:21:30;;;;;;;5.00;3.10;;;22.60;87.60;;;;;;5007778;28;20263;-67
2022/08/08 09:23:57;;;;;;;3.40;2.65;;;22.70;87.10;;;;;;5008534;28;20637;-68
2022/08/08 09:26:32;;;;;;;2.40;2.20;;;22.70;87.20;;;;;;5007637;28;20220;-68
2022/08/08 09:29:01;;;;;;;4.28;2.80;;;22.80;87.40;;;;;;5007938;28;20200;-68
2022/08/08 09:31:45;;;;;;;3.85;2.80;;;22.90;86.50;;;;;;5007961;28;20202;-67
2022/08/08 09:34:17;;;;;;;2.75;2.40;;;23.00;84.60;;;;;;5007557;28;20198;-68
2022/08/08 09:36:46;;;;;;;2.60;2.40;;;23.10;84.40;;;;;;5007939;28;20638;-68
2022/08/08 09:39:16;;;;;;;5.60;2.58;;;23.10;84.50;;;;;;5007684;28;20245;-68
2022/08/08 09:41:43;;;;;;;3.10;2.53;;;23.20;84.30;;;;;;5007096;28;20689;-68
2022/08/08 09:44:20;;;;;;;4.75;2.72;;;23.20;84.80;;;;;;5007293;28;20201;-68
2022/08/08 09:46:49;;;;;;;5.47;2.33;;;23.20;85.20;;;;;;5007653;28;20194;-68
2022/08/08 09:49:17;;;;;;;4.13;2.45;;;23.30;84.60;;;;;;5010874;28;20213;-68
2022/08/08 09:51:48;;;;;;;3.10;2.72;;;23.30;84.80;;;;;;5011024;28;20699;-67
2022/08/08 09:54:19;;;;;;;2.60;2.40;;;23.30;84.30;;;;;;5011370;28;20235;-67
2022/08/08 09:56:53;;;;;;;3.92;2.38;;;23.50;84.00;;;;;;5010823;28;20217;-68
2022/08/08 09:59:25;;;;;;;2.65;2.45;;;23.60;84.70;;;;;;5010924;28;20259;-68
2022/08/08 10:01:53;;;;;;;2.47;2.38;;;23.60;83.20;;;;;;5011017;28;20715;-68
2022/08/08 10:04:21;;;;;;;3.08;2.42;;;23.60;83.60;;;;;;5010991;28;20216;-68
2022/08/08 10:06:50;;;;;;;3.38;2.40;;;23.80;82.70;;;;;;5011035;28;20245;-68
2022/08/08 10:09:17;;;;;;;2.60;2.40;;;23.90;82.20;;;;;;5010959;28;20263;-68
2022/08/08 10:11:50;;;;;;;2.15;1.95;;;24.00;82.70;;;;;;5010670;28;20245;-68
2022/08/08 10:14:17;;;;;;;2.30;2.03;;;24.00;82.40;;;;;;5010838;28;20193;-67
2022/08/08 10:16:45;;;;;;;2.53;2.33;;;24.00;81.30;;;;;;5011141;28;20210;-67
2022/08/08 10:19:12;;;;;;;2.20;2.10;;;24.20;80.50;;;;;;5010607;28;20245;-68
2022/08/08 10:21:39;;;;;;;2.60;2.40;;;24.20;81.60;;;;;;5010475;28;20732;-68
2022/08/08 10:24:08;;;;;;;2.45;2.28;;;24.20;82.30;;;;;;5010689;28;20327;-68
2022/08/08 10:26:39;;;;;;;2.63;2.40;;;24.30;81.10;;;;;;5010286;28;20213;-68
2022/08/08 10:29:08;;;;;;;2.13;2.03;;;24.30;81.20;;;;;;5010548;28;20198;-67
2022/08/08 10:34:42;;;;;;;2.95;2.67;;;24.50;80.40;;;;;;4988113;28;20949;-69
2022/08/08 10:37:11;;;;;;;3.83;2.40;;;24.60;81.30;;;;;;5006343;28;20584;-68
2022/08/08 10:39:45;;;;;;;3.80;2.47;;;24.70;80.20;;;;;;5010211;28;20213;-68
2022/08/08 10:42:17;;;;;;;2.47;2.20;;;24.80;80.90;;;;;;5009722;28;20679;-69
2022/08/08 10:44:44;;;;;;;2.35;2.20;;;24.90;80.00;;;;;;5010105;28;20190;-67
2022/08/08 10:47:13;;;;;;;2.22;2.03;;;25.10;78.60;;;;;;5010243;28;20201;-68
2022/08/08 10:49:42;;;;;;;3.08;2.53;;;25.20;77.30;;;;;;5009704;28;20219;-68
2022/08/08 10:52:09;;;;;;;5.15;2.40;;;25.40;76.60;;;;;;5010083;28;20271;-68
2022/08/08 10:54:38;;;;;;;3.35;2.47;;;25.60;77.00;;;;;;5009869;28;20328;-67
2022/08/08 10:57:06;;;;;;;2.40;2.20;;;25.80;77.10;;;;;;5009627;28;20267;-68
2022/08/08 10:59:33;;;;;;;1.90;1.80;;;25.80;78.10;;;;;;5008528;28;20248;-68
2022/08/08 11:02:00;;;;;;;3.50;2.00;;;25.90;78.20;;;;;;5009351;28;20774;-68
2022/08/08 11:04:27;;;;;;;3.15;2.53;;;26.00;77.20;;;;;;5009324;28;20245;-68
2022/08/08 11:07:00;;;;;;;2.40;2.30;;;26.00;76.80;;;;;;5009801;28;20205;-68
2022/08/08 11:09:28;;;;;;;2.40;2.30;;;26.10;76.40;;;;;;5009480;28;20652;-68
2022/08/08 11:11:57;;;;;;;4.22;2.47;;;26.20;76.30;;;;;;5009156;28;20677;-68
2022/08/08 11:14:23;;;;;;;2.63;2.10;;;26.30;75.40;;;;;;5009176;28;20256;-68
2022/08/08 11:16:51;;;;;;;4.40;2.15;;;26.40;74.00;;;;;;5009453;28;20213;-68
2022/08/08 11:19:19;;;;;;;2.53;2.00;;;26.60;74.30;;;;;;5009237;28;21012;-68
2022/08/08 11:21:48;;;;;;;2.40;2.17;;;26.70;75.10;;;;;;5009509;28;20229;-68
2022/08/08 11:24:16;;;;;;;3.28;2.20;;;26.80;74.40;;;;;;5009049;28;20723;-69
2022/08/08 11:26:45;;;;;;;3.28;2.25;;;27.00;73.80;;;;;;5008890;28;20201;-68
2022/08/08 11:29:14;;;;;;;2.38;2.17;;;27.10;72.70;;;;;;5009546;28;20208;-69
2022/08/08 11:31:46;;;;;;;3.63;2.30;;;27.10;72.50;;;;;;5009205;28;20304;-68
2022/08/08 11:34:15;;;;;;;2.30;2.10;;;27.20;72.00;;;;;;5009284;28;20192;-69
2022/08/08 11:36:43;;;;;;;3.38;2.00;;;27.30;72.70;;;;;;5008961;28;20885;-68
2022/08/08 11:39:11;;;;;;;2.55;2.45;;;27.40;71.40;;;;;;5009182;28;20210;-68
2022/08/08 11:41:41;;;;;;;4.85;2.30;;;27.40;72.40;;;;;;5008443;28;20850;-68
2022/08/08 11:44:10;;;;;;;2.35;2.22;;;27.50;71.40;;;;;;5008642;28;20576;-68
2022/08/08 11:46:37;;;;;;;3.33;2.38;;;27.50;71.00;;;;;;5008995;28;20225;-68
2022/08/08 11:49:10;;;;;;;2.60;2.30;;;27.60;72.70;;;;;;5008925;28;20215;-68
2022/08/08 11:51:37;;;;;;;2.80;2.42;;;27.70;72.80;;;;;;5008752;28;20478;-69
2022/08/08 11:54:04;;;;;;;2.72;2.10;;;27.70;71.60;;;;;;5009058;28;20300;-68
2022/08/08 11:56:33;;;;;;;3.53;2.50;;;27.80;71.60;;;;;;5008452;28;20296;-68
2022/08/08 11:59:07;;;;;;;2.22;2.13;;;27.90;71.50;;;;;;5008689;28;20241;-68
2022/08/08 12:01:34;;;;;;;2.38;2.20;;;28.00;71.10;;;;;;5008448;28;20189;-68
2022/08/08 12:04:03;;;;;;;2.85;2.10;;;28.10;70.90;;;;;;5008405;28;20672;-68
2022/08/08 12:06:30;;;;;;;6.00;2.60;;;28.30;70.80;;;;;;5008355;28;20709;-68
2022/08/08 12:09:05;;;;;;;2.60;2.35;;;28.40;70.50;;;;;;5008364;28;20672;-68
2022/08/08 12:11:38;;;;;;;7.47;2.42;;;28.70;71.00;;;;;;5007248;28;20193;-68
2022/08/08 12:14:07;;;;;;;2.70;2.22;;;28.90;70.30;;;;;;5008161;28;20194;-68
2022/08/08 12:16:34;;;;;;;4.43;2.13;;;29.00;69.00;;;;;;5008448;28;20205;-68
2022/08/08 12:19:02;;;;;;;5.07;2.70;;;29.20;68.70;;;;;;5008456;28;20224;-68
2022/08/08 12:21:30;;;;;;;3.17;2.33;;;29.30;69.00;;;;;;5008402;28;20268;-68
2022/08/08 12:24:05;;;;;;;3.35;2.30;;;29.40;69.20;;;;;;5008106;28;20646;-68
2022/08/08 12:26:38;;;;;;;4.18;1.98;;;29.50;68.50;;;;;;5007731;28;20213;-68
2022/08/08 12:29:24;;;;;;;2.47;2.10;;;29.40;67.80;;;;;;5007789;28;20664;-68
2022/08/08 12:32:06;;;;;;;3.10;2.40;;;29.20;67.80;;;;;;5008357;28;20556;-68
2022/08/08 12:34:38;;;;;;;2.10;1.95;;;29.20;67.30;;;;;;5007778;28;20196;-68
2022/08/08 12:37:06;;;;;;;5.57;2.55;;;29.30;68.50;;;;;;5008008;28;20198;-68
2022/08/08 12:39:33;;;;;;;2.83;2.13;;;29.40;67.40;;;;;;5007820;28;20209;-68
2022/08/08 12:42:01;;;;;;;2.42;2.20;;;29.50;66.50;;;;;;5007772;28;20216;-68
2022/08/08 12:44:30;;;;;;;2.90;2.20;;;29.70;66.40;;;;;;5007727;28;20719;-68
2022/08/08 12:46:58;;;;;;;2.08;1.98;;;29.80;66.30;;;;;;5008117;28;20214;-68
2022/08/08 12:49:28;;;;;;;2.15;2.05;;;29.90;65.50;;;;;;5007619;28;20680;-69
2022/08/08 12:51:56;;;;;;;3.63;2.30;;;29.90;66.50;;;;;;5007692;28;20754;-68
2022/08/08 12:54:24;;;;;;;2.38;2.15;;;30.10;64.90;;;;;;5008050;28;20213;-68
2022/08/08 12:56:51;;;;;;;2.25;2.15;;;30.00;64.70;;;;;;5007642;28;20208;-68
2022/08/08 12:59:21;;;;;;;4.82;2.47;;;29.90;64.00;;;;;;5007685;28;20333;-68
2022/08/08 13:01:54;;;;;;;11.98;3.28;;;30.00;64.40;;;;;;5007681;28;20708;-68
2022/08/08 13:04:23;;;;;;;3.17;2.15;;;30.00;65.50;;;;;;5007792;28;20267;-68
2022/08/08 13:07:01;;;;;;;4.35;2.42;;;30.00;65.10;;;;;;5007720;28;20216;-68
2022/08/08 13:09:39;;;;;;;15.80;3.55;;;29.90;66.00;;;;;;5007618;28;20200;-68
2022/08/08 13:12:15;;;;;;;6.97;2.50;;;29.80;66.20;;;;;;5006922;28;20213;-68
2022/08/08 13:14:47;;;;;;;10.07;2.80;;;29.60;67.30;;;;;;5007340;28;20209;-68
2022/08/08 13:17:16;;;;;;;2.30;2.10;;;29.40;65.90;;;;;;5007578;28;20720;-68
2022/08/08 13:19:43;;;;;;;3.20;2.47;;;29.50;66.20;;;;;;5007721;28;20213;-68
2022/08/08 13:22:14;;;;;;;2.45;2.28;;;29.50;65.30;;;;;;5007470;28;20226;-68
2022/08/08 13:24:42;;;;;;;2.17;2.00;;;29.80;65.80;;;;;;5011623;28;20197;-68
2022/08/08 13:27:10;;;;;;;2.47;1.98;;;30.00;66.00;;;;;;5011121;28;20235;-68
2022/08/08 13:29:47;;;;;;;2.20;2.10;;;30.10;63.50;;;;;;5011246;28;20213;-68